sensor_id;sensor_type;location;lat;lon;timestamp;temperature;humidity
25264;DHT22;13211;51.796;5.808;2022-07-17T00:03:35;14.50;99.90
25264;DHT22;13211;51.796;5.808;2022-07-17T00:06:02;14.40;99.90
25264;DHT22;13211;51.796;5.808;2022-07-17T00:08:30;14.40;99.90
25264;DHT22;13211;51.796;5.808;2022-07-17T00:10:59;14.40;99.90
25264;DHT22;13211;51.796;5.808;2022-07-17T00:13:27;14.40;99.90
25264;DHT22;13211;51.796;5.808;2022-07-17T00:15:55;14.30;99.90
25264;DHT22;13211;51.796;5.808;2022-07-17T00:18:22;14.20;99.90
25264;DHT22;13211;51.796;5.808;2022-07-17T00:20:50;14.20;99.90
25264;DHT22;13211;51.796;5.808;2022-07-17T00:23:19;14.10;99.90
25264;DHT22;13211;51.796;5.808;2022-07-17T00:25:47;14.00;99.90
25264;DHT22;13211;51.796;5.808;2022-07-17T00:28:15;13.90;99.90
25264;DHT22;13211;51.796;5.808;2022-07-17T00:30:43;13.80;99.90
25264;DHT22;13211;51.796;5.808;2022-07-17T00:33:11;13.70;99.90
25264;DHT22;13211;51.796;5.808;2022-07-17T00:35:45;13.70;99.90
25264;DHT22;13211;51.796;5.808;2022-07-17T00:38:13;13.70;99.90
25264;DHT22;13211;51.796;5.808;2022-07-17T00:40:45;13.60;99.90
25264;DHT22;13211;51.796;5.808;2022-07-17T00:43:13;13.50;99.90
25264;DHT22;13211;51.796;5.808;2022-07-17T00:45:42;13.50;99.90
25264;DHT22;13211;51.796;5.808;2022-07-17T00:48:13;13.40;99.90
25264;DHT22;13211;51.796;5.808;2022-07-17T00:50:42;13.40;99.90
25264;DHT22;13211;51.796;5.808;2022-07-17T00:53:11;13.30;99.90
25264;DHT22;13211;51.796;5.808;2022-07-17T00:55:40;13.30;99.90
25264;DHT22;13211;51.796;5.808;2022-07-17T00:58:17;13.20;99.90
25264;DHT22;13211;51.796;5.808;2022-07-17T01:00:48;13.20;99.90
25264;DHT22;13211;51.796;5.808;2022-07-17T01:03:23;13.20;99.90
25264;DHT22;13211;51.796;5.808;2022-07-17T01:05:52;13.10;99.90
25264;DHT22;13211;51.796;5.808;2022-07-17T01:08:20;13.10;99.90
25264;DHT22;13211;51.796;5.808;2022-07-17T01:10:48;13.10;99.90
25264;DHT22;13211;51.796;5.808;2022-07-17T01:13:19;13.00;99.90
25264;DHT22;13211;51.796;5.808;2022-07-17T01:15:47;13.00;99.90
25264;DHT22;13211;51.796;5.808;2022-07-17T01:18:15;13.00;99.90
25264;DHT22;13211;51.796;5.808;2022-07-17T01:20:45;13.00;99.90
25264;DHT22;13211;51.796;5.808;2022-07-17T01:23:17;13.00;99.90
25264;DHT22;13211;51.796;5.808;2022-07-17T01:25:46;12.90;99.90
25264;DHT22;13211;51.796;5.808;2022-07-17T01:28:15;12.90;99.90
25264;DHT22;13211;51.796;5.808;2022-07-17T01:30:51;12.90;99.90
25264;DHT22;13211;51.796;5.808;2022-07-17T01:33:20;12.80;99.90
25264;DHT22;13211;51.796;5.808;2022-07-17T01:35:50;12.80;99.90
25264;DHT22;13211;51.796;5.808;2022-07-17T01:38:17;12.70;99.90
25264;DHT22;13211;51.796;5.808;2022-07-17T01:40:45;12.70;99.90
25264;DHT22;13211;51.796;5.808;2022-07-17T01:43:16;12.70;99.90
25264;DHT22;13211;51.796;5.808;2022-07-17T01:45:43;12.60;99.90
25264;DHT22;13211;51.796;5.808;2022-07-17T01:48:11;12.60;99.90
25264;DHT22;13211;51.796;5.808;2022-07-17T01:50:38;12.60;99.90
25264;DHT22;13211;51.796;5.808;2022-07-17T01:53:06;12.60;99.90
25264;DHT22;13211;51.796;5.808;2022-07-17T01:55:34;12.60;99.90
25264;DHT22;13211;51.796;5.808;2022-07-17T01:58:05;12.60;99.90
25264;DHT22;13211;51.796;5.808;2022-07-17T02:00:32;12.60;99.90
25264;DHT22;13211;51.796;5.808;2022-07-17T02:03:00;12.50;99.90
25264;DHT22;13211;51.796;5.808;2022-07-17T02:05:27;12.50;99.90
25264;DHT22;13211;51.796;5.808;2022-07-17T02:07:54;12.50;99.90
25264;DHT22;13211;51.796;5.808;2022-07-17T02:10:22;12.50;99.90
25264;DHT22;13211;51.796;5.808;2022-07-17T02:12:50;12.40;99.90
25264;DHT22;13211;51.796;5.808;2022-07-17T02:15:20;12.40;99.90
25264;DHT22;13211;51.796;5.808;2022-07-17T02:17:47;12.40;99.90
25264;DHT22;13211;51.796;5.808;2022-07-17T02:20:16;12.40;99.90
25264;DHT22;13211;51.796;5.808;2022-07-17T02:22:44;12.30;99.90
25264;DHT22;13211;51.796;5.808;2022-07-17T02:25:13;12.30;99.90
25264;DHT22;13211;51.796;5.808;2022-07-17T02:27:41;12.30;99.90
25264;DHT22;13211;51.796;5.808;2022-07-17T02:30:18;12.30;99.90
25264;DHT22;13211;51.796;5.808;2022-07-17T02:32:49;12.30;99.90
25264;DHT22;13211;51.796;5.808;2022-07-17T02:35:17;12.30;99.90
25264;DHT22;13211;51.796;5.808;2022-07-17T02:37:45;12.20;99.90
25264;DHT22;13211;51.796;5.808;2022-07-17T02:40:13;12.20;99.90
25264;DHT22;13211;51.796;5.808;2022-07-17T02:42:48;12.20;99.90
25264;DHT22;13211;51.796;5.808;2022-07-17T02:45:16;12.20;99.90
25264;DHT22;13211;51.796;5.808;2022-07-17T02:47:45;12.10;99.90
25264;DHT22;13211;51.796;5.808;2022-07-17T02:50:13;12.10;99.90
25264;DHT22;13211;51.796;5.808;2022-07-17T02:52:42;12.00;99.90
25264;DHT22;13211;51.796;5.808;2022-07-17T02:55:11;12.00;99.90
25264;DHT22;13211;51.796;5.808;2022-07-17T02:57:39;11.90;99.90
25264;DHT22;13211;51.796;5.808;2022-07-17T03:00:09;11.90;99.90
25264;DHT22;13211;51.796;5.808;2022-07-17T03:02:39;11.80;99.90
25264;DHT22;13211;51.796;5.808;2022-07-17T03:05:17;11.80;99.90
25264;DHT22;13211;51.796;5.808;2022-07-17T03:07:45;11.80;99.90
25264;DHT22;13211;51.796;5.808;2022-07-17T03:10:17;11.80;99.90
25264;DHT22;13211;51.796;5.808;2022-07-17T03:12:45;11.80;99.90
25264;DHT22;13211;51.796;5.808;2022-07-17T03:15:13;11.80;99.90
25264;DHT22;13211;51.796;5.808;2022-07-17T03:17:41;11.80;99.90
25264;DHT22;13211;51.796;5.808;2022-07-17T03:20:10;11.80;99.90
25264;DHT22;13211;51.796;5.808;2022-07-17T03:22:39;11.80;99.90
25264;DHT22;13211;51.796;5.808;2022-07-17T03:25:07;11.70;99.90
25264;DHT22;13211;51.796;5.808;2022-07-17T03:27:34;11.70;99.90
25264;DHT22;13211;51.796;5.808;2022-07-17T03:30:03;11.70;99.90
25264;DHT22;13211;51.796;5.808;2022-07-17T03:32:31;11.80;99.90
25264;DHT22;13211;51.796;5.808;2022-07-17T03:34:58;11.70;99.90
25264;DHT22;13211;51.796;5.808;2022-07-17T03:37:29;11.70;99.90
25264;DHT22;13211;51.796;5.808;2022-07-17T03:39:57;11.70;99.90
25264;DHT22;13211;51.796;5.808;2022-07-17T03:42:24;11.60;99.90
25264;DHT22;13211;51.796;5.808;2022-07-17T03:44:52;11.60;99.90
25264;DHT22;13211;51.796;5.808;2022-07-17T03:47:21;11.60;99.90
25264;DHT22;13211;51.796;5.808;2022-07-17T03:49:50;11.60;99.90
25264;DHT22;13211;51.796;5.808;2022-07-17T03:52:18;11.70;99.90
25264;DHT22;13211;51.796;5.808;2022-07-17T03:54:45;11.60;99.90
25264;DHT22;13211;51.796;5.808;2022-07-17T03:57:14;11.60;99.90
25264;DHT22;13211;51.796;5.808;2022-07-17T03:59:42;11.60;99.90
25264;DHT22;13211;51.796;5.808;2022-07-17T04:02:11;11.60;99.90
25264;DHT22;13211;51.796;5.808;2022-07-17T04:04:38;11.60;99.90
25264;DHT22;13211;51.796;5.808;2022-07-17T04:07:07;11.60;99.90
25264;DHT22;13211;51.796;5.808;2022-07-17T04:09:56;11.60;99.90
25264;DHT22;13211;51.796;5.808;2022-07-17T04:12:25;11.60;99.90
25264;DHT22;13211;51.796;5.808;2022-07-17T04:14:53;11.60;99.90
25264;DHT22;13211;51.796;5.808;2022-07-17T04:17:21;11.60;99.90
25264;DHT22;13211;51.796;5.808;2022-07-17T04:19:49;11.60;99.90
25264;DHT22;13211;51.796;5.808;2022-07-17T04:22:17;11.60;99.90
25264;DHT22;13211;51.796;5.808;2022-07-17T04:24:45;11.60;99.90
25264;DHT22;13211;51.796;5.808;2022-07-17T04:27:13;11.70;99.90
25264;DHT22;13211;51.796;5.808;2022-07-17T04:29:42;11.70;99.90
25264;DHT22;13211;51.796;5.808;2022-07-17T04:32:12;11.70;99.90
25264;DHT22;13211;51.796;5.808;2022-07-17T04:34:39;11.80;99.90
25264;DHT22;13211;51.796;5.808;2022-07-17T04:37:07;11.90;99.90
25264;DHT22;13211;51.796;5.808;2022-07-17T04:39:36;11.90;99.90
25264;DHT22;13211;51.796;5.808;2022-07-17T04:42:03;11.90;99.90
25264;DHT22;13211;51.796;5.808;2022-07-17T04:44:31;11.90;99.90
25264;DHT22;13211;51.796;5.808;2022-07-17T04:46:58;11.90;99.90
25264;DHT22;13211;51.796;5.808;2022-07-17T04:49:26;11.90;99.90
25264;DHT22;13211;51.796;5.808;2022-07-17T04:51:53;12.00;99.90
25264;DHT22;13211;51.796;5.808;2022-07-17T04:54:21;12.00;99.90
25264;DHT22;13211;51.796;5.808;2022-07-17T04:56:49;12.10;99.90
25264;DHT22;13211;51.796;5.808;2022-07-17T04:59:17;12.10;99.90
25264;DHT22;13211;51.796;5.808;2022-07-17T05:01:45;12.20;99.90
25264;DHT22;13211;51.796;5.808;2022-07-17T05:04:16;12.30;99.90
25264;DHT22;13211;51.796;5.808;2022-07-17T05:06:43;12.30;99.90
25264;DHT22;13211;51.796;5.808;2022-07-17T05:09:11;12.50;99.90
25264;DHT22;13211;51.796;5.808;2022-07-17T05:11:38;12.50;99.90
25264;DHT22;13211;51.796;5.808;2022-07-17T05:14:10;12.60;99.90
25264;DHT22;13211;51.796;5.808;2022-07-17T05:16:39;12.70;99.90
25264;DHT22;13211;51.796;5.808;2022-07-17T05:19:07;12.80;99.90
25264;DHT22;13211;51.796;5.808;2022-07-17T05:21:34;12.90;99.90
25264;DHT22;13211;51.796;5.808;2022-07-17T05:24:02;13.00;99.90
25264;DHT22;13211;51.796;5.808;2022-07-17T05:26:31;13.10;99.90
25264;DHT22;13211;51.796;5.808;2022-07-17T05:28:58;13.20;99.90
25264;DHT22;13211;51.796;5.808;2022-07-17T05:31:27;13.20;99.90
25264;DHT22;13211;51.796;5.808;2022-07-17T05:33:55;13.40;99.90
25264;DHT22;13211;51.796;5.808;2022-07-17T05:36:23;13.40;99.90
25264;DHT22;13211;51.796;5.808;2022-07-17T05:38:51;13.50;99.90
25264;DHT22;13211;51.796;5.808;2022-07-17T05:41:21;13.60;99.90
25264;DHT22;13211;51.796;5.808;2022-07-17T05:43:48;13.70;99.90
25264;DHT22;13211;51.796;5.808;2022-07-17T05:46:17;13.70;99.90
25264;DHT22;13211;51.796;5.808;2022-07-17T05:48:47;13.80;99.90
25264;DHT22;13211;51.796;5.808;2022-07-17T05:51:17;13.80;99.90
25264;DHT22;13211;51.796;5.808;2022-07-17T05:53:50;13.90;99.90
25264;DHT22;13211;51.796;5.808;2022-07-17T05:56:18;14.00;99.90
25264;DHT22;13211;51.796;5.808;2022-07-17T05:58:46;14.10;99.90
25264;DHT22;13211;51.796;5.808;2022-07-17T06:01:17;14.20;99.90
25264;DHT22;13211;51.796;5.808;2022-07-17T06:03:46;14.20;99.90
25264;DHT22;13211;51.796;5.808;2022-07-17T06:06:13;14.30;99.90
25264;DHT22;13211;51.796;5.808;2022-07-17T06:08:41;14.50;99.90
25264;DHT22;13211;51.796;5.808;2022-07-17T06:11:09;14.60;99.90
25264;DHT22;13211;51.796;5.808;2022-07-17T06:13:37;14.70;99.90
25264;DHT22;13211;51.796;5.808;2022-07-17T06:16:05;14.80;99.90
25264;DHT22;13211;51.796;5.808;2022-07-17T06:18:32;14.90;99.90
25264;DHT22;13211;51.796;5.808;2022-07-17T06:21:01;15.00;99.90
25264;DHT22;13211;51.796;5.808;2022-07-17T06:23:29;15.10;99.90
25264;DHT22;13211;51.796;5.808;2022-07-17T06:25:57;15.20;99.90
25264;DHT22;13211;51.796;5.808;2022-07-17T06:28:25;15.30;99.90
25264;DHT22;13211;51.796;5.808;2022-07-17T06:30:52;15.50;99.90
25264;DHT22;13211;51.796;5.808;2022-07-17T06:33:20;15.60;99.90
25264;DHT22;13211;51.796;5.808;2022-07-17T06:35:48;15.70;99.90
25264;DHT22;13211;51.796;5.808;2022-07-17T06:38:19;15.80;99.90
25264;DHT22;13211;51.796;5.808;2022-07-17T06:40:49;16.00;99.90
25264;DHT22;13211;51.796;5.808;2022-07-17T06:43:17;16.10;99.90
25264;DHT22;13211;51.796;5.808;2022-07-17T06:45:48;16.30;99.90
25264;DHT22;13211;51.796;5.808;2022-07-17T06:48:15;16.40;99.90
25264;DHT22;13211;51.796;5.808;2022-07-17T06:50:43;16.50;99.90
25264;DHT22;13211;51.796;5.808;2022-07-17T06:53:10;16.70;99.90
25264;DHT22;13211;51.796;5.808;2022-07-17T06:55:38;16.70;99.90
25264;DHT22;13211;51.796;5.808;2022-07-17T06:58:06;16.90;99.90
25264;DHT22;13211;51.796;5.808;2022-07-17T07:00:34;17.00;99.90
25264;DHT22;13211;51.796;5.808;2022-07-17T07:03:02;17.20;99.90
25264;DHT22;13211;51.796;5.808;2022-07-17T07:05:30;17.30;99.90
25264;DHT22;13211;51.796;5.808;2022-07-17T07:07:58;17.40;99.90
25264;DHT22;13211;51.796;5.808;2022-07-17T07:10:29;17.60;99.90
25264;DHT22;13211;51.796;5.808;2022-07-17T07:12:57;17.70;99.90
25264;DHT22;13211;51.796;5.808;2022-07-17T07:15:25;17.90;99.90
25264;DHT22;13211;51.796;5.808;2022-07-17T07:17:52;18.00;99.90
25264;DHT22;13211;51.796;5.808;2022-07-17T07:20:20;18.10;99.90
25264;DHT22;13211;51.796;5.808;2022-07-17T07:22:47;18.30;99.90
25264;DHT22;13211;51.796;5.808;2022-07-17T07:25:15;18.40;99.90
25264;DHT22;13211;51.796;5.808;2022-07-17T07:27:43;18.50;99.90
25264;DHT22;13211;51.796;5.808;2022-07-17T07:30:11;18.70;99.90
25264;DHT22;13211;51.796;5.808;2022-07-17T07:32:40;18.70;99.90
25264;DHT22;13211;51.796;5.808;2022-07-17T07:35:08;18.80;99.90
25264;DHT22;13211;51.796;5.808;2022-07-17T07:37:37;18.90;99.90
25264;DHT22;13211;51.796;5.808;2022-07-17T07:40:06;19.00;99.90
25264;DHT22;13211;51.796;5.808;2022-07-17T07:42:35;19.10;99.90
25264;DHT22;13211;51.796;5.808;2022-07-17T07:45:03;19.10;99.90
25264;DHT22;13211;51.796;5.808;2022-07-17T07:47:33;19.20;99.90
25264;DHT22;13211;51.796;5.808;2022-07-17T07:50:07;19.30;99.90
25264;DHT22;13211;51.796;5.808;2022-07-17T07:52:35;19.40;99.90
25264;DHT22;13211;51.796;5.808;2022-07-17T07:55:03;19.60;99.90
25264;DHT22;13211;51.796;5.808;2022-07-17T07:57:31;19.60;99.90
25264;DHT22;13211;51.796;5.808;2022-07-17T07:59:58;19.80;99.90
25264;DHT22;13211;51.796;5.808;2022-07-17T08:02:26;19.90;99.90
25264;DHT22;13211;51.796;5.808;2022-07-17T08:04:54;20.00;99.90
25264;DHT22;13211;51.796;5.808;2022-07-17T08:07:21;20.00;99.90
25264;DHT22;13211;51.796;5.808;2022-07-17T08:09:49;20.10;99.90
25264;DHT22;13211;51.796;5.808;2022-07-17T08:12:18;20.30;99.90
25264;DHT22;13211;51.796;5.808;2022-07-17T08:15:06;20.40;99.90
25264;DHT22;13211;51.796;5.808;2022-07-17T08:17:35;20.60;99.90
25264;DHT22;13211;51.796;5.808;2022-07-17T08:20:03;20.80;99.90
25264;DHT22;13211;51.796;5.808;2022-07-17T08:22:43;21.00;99.90
25264;DHT22;13211;51.796;5.808;2022-07-17T08:25:31;21.20;99.90
25264;DHT22;13211;51.796;5.808;2022-07-17T08:28:01;21.50;99.90
25264;DHT22;13211;51.796;5.808;2022-07-17T08:30:30;21.60;99.90
25264;DHT22;13211;51.796;5.808;2022-07-17T08:33:07;21.80;99.90
25264;DHT22;13211;51.796;5.808;2022-07-17T08:35:40;21.80;99.90
25264;DHT22;13211;51.796;5.808;2022-07-17T08:38:08;21.90;99.90
25264;DHT22;13211;51.796;5.808;2022-07-17T08:40:36;22.10;99.90
25264;DHT22;13211;51.796;5.808;2022-07-17T08:43:06;22.30;99.90
25264;DHT22;13211;51.796;5.808;2022-07-17T08:45:35;22.20;99.90
25264;DHT22;13211;51.796;5.808;2022-07-17T08:48:14;22.20;99.90
25264;DHT22;13211;51.796;5.808;2022-07-17T08:50:47;22.20;99.90
25264;DHT22;13211;51.796;5.808;2022-07-17T08:53:16;22.40;99.90
25264;DHT22;13211;51.796;5.808;2022-07-17T08:55:47;22.50;99.90
25264;DHT22;13211;51.796;5.808;2022-07-17T08:58:18;22.70;99.90
25264;DHT22;13211;51.796;5.808;2022-07-17T09:00:47;22.70;99.90
25264;DHT22;13211;51.796;5.808;2022-07-17T09:03:16;22.90;99.90
25264;DHT22;13211;51.796;5.808;2022-07-17T09:05:47;22.90;99.90
25264;DHT22;13211;51.796;5.808;2022-07-17T09:08:20;22.80;99.90
25264;DHT22;13211;51.796;5.808;2022-07-17T09:10:50;22.70;99.90
25264;DHT22;13211;51.796;5.808;2022-07-17T09:13:30;22.90;99.90
25264;DHT22;13211;51.796;5.808;2022-07-17T09:18:45;23.30;99.90
25264;DHT22;13211;51.796;5.808;2022-07-17T09:21:23;23.60;99.90
25264;DHT22;13211;51.796;5.808;2022-07-17T09:24:02;23.90;99.90
25264;DHT22;13211;51.796;5.808;2022-07-17T09:26:34;24.20;99.90
25264;DHT22;13211;51.796;5.808;2022-07-17T09:29:03;24.20;99.90
25264;DHT22;13211;51.796;5.808;2022-07-17T09:31:33;24.10;99.90
25264;DHT22;13211;51.796;5.808;2022-07-17T09:34:01;24.10;97.90
25264;DHT22;13211;51.796;5.808;2022-07-17T09:36:29;24.30;99.00
25264;DHT22;13211;51.796;5.808;2022-07-17T09:38:58;24.50;98.10
25264;DHT22;13211;51.796;5.808;2022-07-17T09:41:26;24.60;98.30
25264;DHT22;13211;51.796;5.808;2022-07-17T09:44:02;24.80;97.10
25264;DHT22;13211;51.796;5.808;2022-07-17T09:46:32;25.00;95.40
25264;DHT22;13211;51.796;5.808;2022-07-17T09:49:04;25.20;94.80
25264;DHT22;13211;51.796;5.808;2022-07-17T09:51:37;25.40;95.40
25264;DHT22;13211;51.796;5.808;2022-07-17T09:54:10;25.50;96.80
25264;DHT22;13211;51.796;5.808;2022-07-17T09:56:44;25.40;99.90
25264;DHT22;13211;51.796;5.808;2022-07-17T09:59:18;25.30;98.20
25264;DHT22;13211;51.796;5.808;2022-07-17T10:01:46;25.40;99.90
25264;DHT22;13211;51.796;5.808;2022-07-17T10:04:19;25.30;99.60
25264;DHT22;13211;51.796;5.808;2022-07-17T10:06:47;25.40;98.90
25264;DHT22;13211;51.796;5.808;2022-07-17T10:09:15;25.50;98.60
25264;DHT22;13211;51.796;5.808;2022-07-17T10:11:43;25.80;96.40
25264;DHT22;13211;51.796;5.808;2022-07-17T10:14:17;25.90;97.10
25264;DHT22;13211;51.796;5.808;2022-07-17T10:16:46;26.10;98.40
25264;DHT22;13211;51.796;5.808;2022-07-17T10:19:24;26.40;98.30
25264;DHT22;13211;51.796;5.808;2022-07-17T10:21:57;26.70;94.10
25264;DHT22;13211;51.796;5.808;2022-07-17T10:24:27;26.80;95.90
25264;DHT22;13211;51.796;5.808;2022-07-17T10:26:57;26.30;91.90
25264;DHT22;13211;51.796;5.808;2022-07-17T10:29:37;26.10;95.60
25264;DHT22;13211;51.796;5.808;2022-07-17T10:32:20;26.10;95.80
25264;DHT22;13211;51.796;5.808;2022-07-17T10:34:56;26.00;91.90
25264;DHT22;13211;51.796;5.808;2022-07-17T10:40:17;26.30;92.80
25264;DHT22;13211;51.796;5.808;2022-07-17T10:50:43;27.60;92.60
25264;DHT22;13211;51.796;5.808;2022-07-17T10:53:18;27.90;90.50
25264;DHT22;13211;51.796;5.808;2022-07-17T10:55:52;27.90;90.40
25264;DHT22;13211;51.796;5.808;2022-07-17T10:58:25;27.50;85.90
25264;DHT22;13211;51.796;5.808;2022-07-17T11:01:16;27.50;88.60
25264;DHT22;13211;51.796;5.808;2022-07-17T11:06:27;28.10;88.10
25264;DHT22;13211;51.796;5.808;2022-07-17T11:09:06;28.60;91.30
25264;DHT22;13211;51.796;5.808;2022-07-17T11:11:44;29.00;86.60
25264;DHT22;13211;51.796;5.808;2022-07-17T11:14:16;28.90;81.40
25264;DHT22;13211;51.796;5.808;2022-07-17T11:19:22;29.10;80.00
25264;DHT22;13211;51.796;5.808;2022-07-17T11:21:54;29.40;82.40
25264;DHT22;13211;51.796;5.808;2022-07-17T11:24:22;29.70;85.50
25264;DHT22;13211;51.796;5.808;2022-07-17T11:26:51;29.80;86.40
25264;DHT22;13211;51.796;5.808;2022-07-17T11:29:18;29.80;80.30
25264;DHT22;13211;51.796;5.808;2022-07-17T11:31:46;29.50;82.00
25264;DHT22;13211;51.796;5.808;2022-07-17T11:34:13;29.40;82.60
25264;DHT22;13211;51.796;5.808;2022-07-17T11:36:43;29.40;75.60
25264;DHT22;13211;51.796;5.808;2022-07-17T11:39:15;29.40;82.60
25264;DHT22;13211;51.796;5.808;2022-07-17T11:41:49;29.60;79.60
25264;DHT22;13211;51.796;5.808;2022-07-17T11:44:21;29.90;76.10
25264;DHT22;13211;51.796;5.808;2022-07-17T11:47:26;30.20;76.40
25264;DHT22;13211;51.796;5.808;2022-07-17T11:50:09;30.40;81.30
25264;DHT22;13211;51.796;5.808;2022-07-17T11:52:48;30.20;81.30
25264;DHT22;13211;51.796;5.808;2022-07-17T11:55:16;30.30;75.70
25264;DHT22;13211;51.796;5.808;2022-07-17T11:57:49;30.60;77.60
25264;DHT22;13211;51.796;5.808;2022-07-17T12:00:19;30.80;75.80
25264;DHT22;13211;51.796;5.808;2022-07-17T12:02:57;31.00;82.00
25264;DHT22;13211;51.796;5.808;2022-07-17T12:05:26;31.10;74.30
25264;DHT22;13211;51.796;5.808;2022-07-17T12:07:56;31.00;78.20
25264;DHT22;13211;51.796;5.808;2022-07-17T12:10:25;31.20;78.30
25264;DHT22;13211;51.796;5.808;2022-07-17T12:13:05;31.30;74.10
25264;DHT22;13211;51.796;5.808;2022-07-17T12:15:41;31.40;73.40
25264;DHT22;13211;51.796;5.808;2022-07-17T12:18:26;31.40;68.80
25264;DHT22;13211;51.796;5.808;2022-07-17T12:21:03;31.50;72.90
25264;DHT22;13211;51.796;5.808;2022-07-17T12:23:36;31.90;71.30
25264;DHT22;13211;51.796;5.808;2022-07-17T12:26:16;32.00;68.10
25264;DHT22;13211;51.796;5.808;2022-07-17T12:28:47;31.90;66.40
25264;DHT22;13211;51.796;5.808;2022-07-17T12:31:16;31.90;68.50
25264;DHT22;13211;51.796;5.808;2022-07-17T12:33:47;32.10;66.60
25264;DHT22;13211;51.796;5.808;2022-07-17T12:36:16;32.30;67.50
25264;DHT22;13211;51.796;5.808;2022-07-17T12:38:44;32.40;71.00
25264;DHT22;13211;51.796;5.808;2022-07-17T12:41:12;32.30;69.40
25264;DHT22;13211;51.796;5.808;2022-07-17T12:43:45;31.70;66.20
25264;DHT22;13211;51.796;5.808;2022-07-17T12:46:13;31.60;69.80
25264;DHT22;13211;51.796;5.808;2022-07-17T12:48:45;31.40;73.40
25264;DHT22;13211;51.796;5.808;2022-07-17T12:51:18;30.90;71.80
25264;DHT22;13211;51.796;5.808;2022-07-17T12:53:46;31.00;74.50
25264;DHT22;13211;51.796;5.808;2022-07-17T12:56:14;31.40;70.60
25264;DHT22;13211;51.796;5.808;2022-07-17T12:58:54;31.90;70.80
25264;DHT22;13211;51.796;5.808;2022-07-17T13:01:28;32.40;71.30
25264;DHT22;13211;51.796;5.808;2022-07-17T13:03:56;32.70;66.40
25264;DHT22;13211;51.796;5.808;2022-07-17T13:06:24;33.00;68.40
25264;DHT22;13211;51.796;5.808;2022-07-17T13:08:52;32.90;72.50
25264;DHT22;13211;51.796;5.808;2022-07-17T13:11:20;33.10;66.40
25264;DHT22;13211;51.796;5.808;2022-07-17T13:13:48;33.10;65.50
25264;DHT22;13211;51.796;5.808;2022-07-17T13:16:16;33.10;67.10
25264;DHT22;13211;51.796;5.808;2022-07-17T13:18:45;33.10;67.50
25264;DHT22;13211;51.796;5.808;2022-07-17T13:21:13;33.10;66.10
25264;DHT22;13211;51.796;5.808;2022-07-17T13:23:45;32.70;65.00
25264;DHT22;13211;51.796;5.808;2022-07-17T13:26:16;32.50;66.80
25264;DHT22;13211;51.796;5.808;2022-07-17T13:28:46;32.50;67.50
25264;DHT22;13211;51.796;5.808;2022-07-17T13:31:13;32.50;67.10
25264;DHT22;13211;51.796;5.808;2022-07-17T13:33:46;32.70;70.00
25264;DHT22;13211;51.796;5.808;2022-07-17T13:36:16;32.70;66.40
25264;DHT22;13211;51.796;5.808;2022-07-17T13:38:46;32.90;69.70
25264;DHT22;13211;51.796;5.808;2022-07-17T13:41:16;33.10;67.10
25264;DHT22;13211;51.796;5.808;2022-07-17T13:43:45;33.10;64.60
25264;DHT22;13211;51.796;5.808;2022-07-17T13:46:13;33.20;69.10
25264;DHT22;13211;51.796;5.808;2022-07-17T13:48:43;33.40;67.10
25264;DHT22;13211;51.796;5.808;2022-07-17T13:51:21;33.40;67.00
25264;DHT22;13211;51.796;5.808;2022-07-17T13:53:49;33.50;69.30
25264;DHT22;13211;51.796;5.808;2022-07-17T13:56:17;33.50;68.40
25264;DHT22;13211;51.796;5.808;2022-07-17T13:58:46;33.50;71.30
25264;DHT22;13211;51.796;5.808;2022-07-17T14:01:13;33.20;70.10
25264;DHT22;13211;51.796;5.808;2022-07-17T14:03:49;33.20;70.50
25264;DHT22;13211;51.796;5.808;2022-07-17T14:06:16;33.20;67.20
25264;DHT22;13211;51.796;5.808;2022-07-17T14:08:46;33.20;67.70
25264;DHT22;13211;51.796;5.808;2022-07-17T14:11:13;33.20;68.10
25264;DHT22;13211;51.796;5.808;2022-07-17T14:13:41;33.30;67.90
25264;DHT22;13211;51.796;5.808;2022-07-17T14:16:16;33.30;68.50
25264;DHT22;13211;51.796;5.808;2022-07-17T14:18:48;33.10;66.30
25264;DHT22;13211;51.796;5.808;2022-07-17T14:21:36;33.10;68.40
25264;DHT22;13211;51.796;5.808;2022-07-17T14:24:04;33.30;70.50
25264;DHT22;13211;51.796;5.808;2022-07-17T14:26:33;33.10;66.80
25264;DHT22;13211;51.796;5.808;2022-07-17T14:29:09;33.10;67.10
25264;DHT22;13211;51.796;5.808;2022-07-17T14:31:38;32.80;67.50
25264;DHT22;13211;51.796;5.808;2022-07-17T14:34:15;32.80;66.40
25264;DHT22;13211;51.796;5.808;2022-07-17T14:36:55;32.80;70.90
25264;DHT22;13211;51.796;5.808;2022-07-17T14:39:32;32.80;67.40
25264;DHT22;13211;51.796;5.808;2022-07-17T14:42:02;32.90;66.30
25264;DHT22;13211;51.796;5.808;2022-07-17T14:44:32;32.70;69.10
25264;DHT22;13211;51.796;5.808;2022-07-17T14:47:01;32.30;65.20
25264;DHT22;13211;51.796;5.808;2022-07-17T14:49:30;32.60;68.50
25264;DHT22;13211;51.796;5.808;2022-07-17T14:51:57;32.70;67.00
25264;DHT22;13211;51.796;5.808;2022-07-17T14:54:25;32.70;67.00
25264;DHT22;13211;51.796;5.808;2022-07-17T14:56:54;32.70;69.40
25264;DHT22;13211;51.796;5.808;2022-07-17T14:59:21;32.60;66.80
25264;DHT22;13211;51.796;5.808;2022-07-17T15:01:49;32.30;64.70
25264;DHT22;13211;51.796;5.808;2022-07-17T15:04:17;32.20;67.80
25264;DHT22;13211;51.796;5.808;2022-07-17T15:06:49;31.90;66.20
25264;DHT22;13211;51.796;5.808;2022-07-17T15:09:17;31.80;65.70
25264;DHT22;13211;51.796;5.808;2022-07-17T15:11:47;31.60;63.80
25264;DHT22;13211;51.796;5.808;2022-07-17T15:17:26;31.20;65.40
25264;DHT22;13211;51.796;5.808;2022-07-17T15:20:36;31.10;64.50
25264;DHT22;13211;51.796;5.808;2022-07-17T15:23:12;30.90;64.80
25264;DHT22;13211;51.796;5.808;2022-07-17T15:25:42;30.70;66.00
25264;DHT22;13211;51.796;5.808;2022-07-17T15:28:11;30.70;66.90
25264;DHT22;13211;51.796;5.808;2022-07-17T15:30:39;30.60;67.50
25264;DHT22;13211;51.796;5.808;2022-07-17T15:33:06;30.60;65.90
25264;DHT22;13211;51.796;5.808;2022-07-17T15:35:34;30.50;64.00
25264;DHT22;13211;51.796;5.808;2022-07-17T15:38:04;30.50;67.00
25264;DHT22;13211;51.796;5.808;2022-07-17T15:40:31;30.40;65.00
25264;DHT22;13211;51.796;5.808;2022-07-17T15:42:59;30.20;65.70
25264;DHT22;13211;51.796;5.808;2022-07-17T15:45:27;30.10;67.40
25264;DHT22;13211;51.796;5.808;2022-07-17T15:47:55;29.80;68.70
25264;DHT22;13211;51.796;5.808;2022-07-17T15:50:23;29.70;67.60
25264;DHT22;13211;51.796;5.808;2022-07-17T15:52:51;29.60;66.50
25264;DHT22;13211;51.796;5.808;2022-07-17T15:55:18;29.50;68.20
25264;DHT22;13211;51.796;5.808;2022-07-17T15:57:45;29.40;67.60
25264;DHT22;13211;51.796;5.808;2022-07-17T16:00:13;29.30;66.60
25264;DHT22;13211;51.796;5.808;2022-07-17T16:02:41;29.20;66.40
25264;DHT22;13211;51.796;5.808;2022-07-17T16:05:11;28.90;64.50
25264;DHT22;13211;51.796;5.808;2022-07-17T16:07:38;28.80;65.70
25264;DHT22;13211;51.796;5.808;2022-07-17T16:10:06;28.70;64.50
25264;DHT22;13211;51.796;5.808;2022-07-17T16:12:34;28.40;63.30